Time;durP1;ratioP1;P1;durP2;ratioP2;P2;SDS_P1;SDS_P2;PMS_P1;PMS_P2;Temp;Humidity;BMP_temperature;BMP_pressure;BME280_temperature;BME280_humidity;BME280_pressure;Samples;Min_cycle;Max_cycle;Signal;HPM_P1;HPM_P2
2023/08/14 00:00:46;;;;;;;0.63;0.60;;;;;;;22.29;55.50;95585.97;5114857;28;20442;-57
2023/08/14 00:03:15;;;;;;;0.60;0.37;;;;;;;22.42;55.20;95588.31;5114653;28;20431;-58
2023/08/14 00:05:43;;;;;;;0.50;0.30;;;;;;;22.43;55.68;95583.72;5114881;28;20566;-58
2023/08/14 00:08:11;;;;;;;0.60;0.40;;;;;;;21.72;55.44;95513.88;5114466;28;20432;-57
2023/08/14 00:10:40;;;;;;;0.60;0.60;;;;;;;21.88;55.97;95576.13;5114150;28;20443;-57
2023/08/14 00:13:08;;;;;;;1.03;0.70;;;;;;;21.63;56.92;95587.94;5113244;28;20523;-57
2023/08/14 00:15:36;;;;;;;0.50;0.40;;;;;;;21.56;57.45;95588.47;5114679;28;20447;-57
2023/08/14 00:18:06;;;;;;;0.80;0.80;;;;;;;21.55;57.25;95581.50;5114096;28;20954;-57
2023/08/14 00:20:35;;;;;;;1.17;0.50;;;;;;;21.51;57.72;95592.16;5113685;28;20435;-57
2023/08/14 00:23:03;;;;;;;0.60;0.60;;;;;;;21.28;56.98;95542.41;5114139;28;20447;-58
2023/08/14 00:25:32;;;;;;;0.90;0.50;;;;;;;21.42;57.09;95561.78;5114257;28;20503;-58
2023/08/14 00:28:00;;;;;;;0.60;0.33;;;;;;;21.50;57.12;95579.00;5114816;28;20440;-58
2023/08/14 00:30:29;;;;;;;0.83;0.80;;;;;;;21.61;57.17;95590.16;5114566;28;20443;-58
2023/08/14 00:32:57;;;;;;;0.60;0.50;;;;;;;21.58;57.11;95590.84;5114350;28;20945;-58
2023/08/14 00:35:27;;;;;;;0.60;0.50;;;;;;;21.48;57.73;95589.31;5113998;28;20456;-58
2023/08/14 00:37:55;;;;;;;0.70;0.70;;;;;;;21.59;57.22;95597.78;5114314;28;20450;-58
2023/08/14 00:40:23;;;;;;;1.03;0.87;;;;;;;21.57;57.13;95583.84;5112839;28;20427;-57
2023/08/14 00:42:53;;;;;;;0.60;0.57;;;;;;;21.49;57.61;95589.00;5114425;28;20440;-58
2023/08/14 00:45:21;;;;;;;0.80;0.47;;;;;;;21.40;57.86;95585.59;5113979;28;20482;-58
2023/08/14 00:48:00;;;;;;;0.60;0.60;;;;;;;21.43;59.00;95590.31;5113414;28;20440;-57
2023/08/14 00:50:30;;;;;;;0.70;0.40;;;;;;;21.46;57.46;95594.25;5087166;28;20443;-57
2023/08/14 00:53:03;;;;;;;1.47;0.50;;;;;;;21.06;57.66;95533.88;5113116;28;20567;-57
2023/08/14 00:55:32;;;;;;;0.50;0.30;;;;;;;21.56;57.56;95595.75;5114285;27;20851;-57
2023/08/14 00:58:01;;;;;;;1.33;0.50;;;;;;;21.44;57.35;95589.22;5113456;28;20443;-57
2023/08/14 01:00:30;;;;;;;1.37;0.77;;;;;;;21.19;57.67;95557.09;5113959;28;20440;-57
2023/08/14 01:02:58;;;;;;;0.77;0.77;;;;;;;21.54;57.90;95590.72;5113201;28;20432;-57
2023/08/14 01:05:26;;;;;;;0.77;0.60;;;;;;;21.75;59.58;95583.38;5113570;28;20472;-57
2023/08/14 01:07:56;;;;;;;0.80;0.50;;;;;;;21.75;57.40;95586.06;5113448;28;21041;-57
2023/08/14 01:10:31;;;;;;;0.57;0.40;;;;;;;21.70;58.17;95580.09;5113941;28;20513;-58
2023/08/14 01:13:09;;;;;;;0.70;0.60;;;;;;;21.88;57.45;95579.59;5113185;28;20435;-57
2023/08/14 01:15:43;;;;;;;0.90;0.90;;;;;;;21.65;56.84;95586.50;5113697;28;20431;-56
2023/08/14 01:18:16;;;;;;;0.70;0.47;;;;;;;21.75;57.36;95577.19;5087814;28;20509;-57
2023/08/14 01:20:58;;;;;;;0.70;0.60;;;;;;;21.46;58.60;95545.72;5113020;28;20451;-57
2023/08/14 01:23:34;;;;;;;1.10;0.70;;;;;;;21.64;58.14;95581.41;5113662;28;20791;-57
2023/08/14 01:26:04;;;;;;;0.53;0.43;;;;;;;21.50;57.87;95589.81;5112625;28;20507;-58
2023/08/14 01:28:33;;;;;;;0.50;0.40;;;;;;;21.20;58.39;95543.25;5113275;28;20489;-57
2023/08/14 01:31:02;;;;;;;0.70;0.70;;;;;;;21.29;58.01;95568.25;5112743;28;20439;-57
2023/08/14 01:33:30;;;;;;;1.57;0.70;;;;;;;21.66;58.91;95589.94;5113143;28;20514;-58
2023/08/14 01:36:06;;;;;;;0.70;0.70;;;;;;;21.41;57.94;95587.16;5112953;28;20436;-57
2023/08/14 01:38:40;;;;;;;0.70;0.70;;;;;;;21.36;58.01;95583.88;5112840;28;20444;-58
2023/08/14 01:41:18;;;;;;;0.70;0.63;;;;;;;21.39;58.05;95583.22;5113050;28;20439;-58
2023/08/14 01:43:53;;;;;;;1.50;0.63;;;;;;;21.39;59.11;95584.03;5112932;28;20941;-57
2023/08/14 01:46:24;;;;;;;0.47;0.30;;;;;;;21.50;58.69;95589.81;5112813;28;20863;-58
2023/08/14 01:48:56;;;;;;;0.60;0.60;;;;;;;21.56;59.70;95579.56;5112590;28;20518;-59
2023/08/14 01:51:25;;;;;;;0.50;0.30;;;;;;;21.69;59.13;95573.91;5112855;28;20436;-59
2023/08/14 01:53:54;;;;;;;0.97;0.53;;;;;;;21.77;58.38;95577.63;5112983;27;20431;-59
2023/08/14 01:56:23;;;;;;;0.50;0.50;;;;;;;21.49;57.67;95564.75;5112305;28;20446;-58
2023/08/14 01:58:52;;;;;;;1.07;0.93;;;;;;;21.18;58.94;95542.81;5111671;28;20801;-59
2023/08/14 02:01:20;;;;;;;11.47;0.60;;;;;;;21.60;58.61;95567.03;5111900;28;20435;-59
2023/08/14 02:03:48;;;;;;;0.50;0.37;;;;;;;21.27;58.95;95499.59;5112341;28;20471;-59
2023/08/14 02:06:17;;;;;;;0.50;0.40;;;;;;;21.21;57.55;95519.78;5111929;28;20554;-59
2023/08/14 02:08:45;;;;;;;2.83;0.30;;;;;;;21.64;58.73;95576.00;5112310;28;20471;-59
2023/08/14 02:11:13;;;;;;;2.77;0.80;;;;;;;21.29;58.40;95568.25;5112241;28;20515;-59
2023/08/14 02:13:43;;;;;;;0.50;0.40;;;;;;;21.01;58.19;95529.44;5112861;28;20436;-59
2023/08/14 02:16:11;;;;;;;1.20;0.60;;;;;;;21.16;59.20;95574.69;5112379;28;20439;-59
2023/08/14 02:18:40;;;;;;;0.87;0.87;;;;;;;21.26;61.05;95577.00;5112057;28;20511;-59
2023/08/14 02:21:08;;;;;;;0.70;0.50;;;;;;;21.30;59.26;95575.19;5111854;28;20481;-59
2023/08/14 02:23:37;;;;;;;0.50;0.30;;;;;;;21.48;58.92;95582.03;5112260;28;20439;-59
2023/08/14 02:26:05;;;;;;;0.40;0.30;;;;;;;21.71;58.45;95570.84;5110072;28;20476;-59
2023/08/14 02:28:33;;;;;;;0.40;0.30;;;;;;;21.84;57.81;95572.47;5111958;28;20436;-59
2023/08/14 02:31:04;;;;;;;0.60;0.30;;;;;;;21.68;57.74;95549.97;5112569;28;20440;-59
2023/08/14 02:33:33;;;;;;;0.40;0.20;;;;;;;21.86;58.29;95567.53;5111867;28;20446;-59
2023/08/14 02:36:02;;;;;;;0.40;0.33;;;;;;;21.81;58.20;95573.91;5112252;28;20442;-59
2023/08/14 02:38:30;;;;;;;0.50;0.30;;;;;;;21.52;58.94;95569.47;5112026;28;20498;-59
2023/08/14 02:41:03;;;;;;;1.73;0.40;;;;;;;21.09;58.97;95574.44;5112265;28;20481;-59
2023/08/14 02:43:31;;;;;;;0.47;0.30;;;;;;;21.04;60.12;95573.81;5112066;28;20439;-59
2023/08/14 02:45:59;;;;;;;0.60;0.60;;;;;;;20.96;59.27;95580.84;5112229;28;20471;-60
2023/08/14 02:48:29;;;;;;;0.60;0.50;;;;;;;20.82;59.33;95591.09;5111735;28;20475;-59
2023/08/14 02:50:57;;;;;;;0.70;0.70;;;;;;;20.72;60.22;95584.16;5112178;28;20868;-59
2023/08/14 02:53:25;;;;;;;0.70;0.70;;;;;;;20.64;60.59;95581.53;5111618;28;20522;-59
2023/08/14 02:55:54;;;;;;;1.10;1.10;;;;;;;20.68;60.18;95574.38;5112335;28;20792;-59
2023/08/14 02:58:23;;;;;;;0.50;0.50;;;;;;;20.65;61.23;95577.72;5111743;28;20867;-59
2023/08/14 03:00:51;;;;;;;0.83;0.80;;;;;;;20.75;60.30;95575.44;5111945;28;20524;-59
2023/08/14 03:03:19;;;;;;;0.60;0.60;;;;;;;20.67;60.41;95570.91;5111890;28;20443;-59
2023/08/14 03:05:49;;;;;;;0.50;0.40;;;;;;;20.88;60.46;95579.78;5111362;28;20440;-59
2023/08/14 03:08:17;;;;;;;0.70;0.40;;;;;;;20.66;60.62;95544.28;5111390;28;20571;-59
2023/08/14 03:10:46;;;;;;;0.60;0.40;;;;;;;20.72;60.47;95570.69;5115860;28;20488;-58
2023/08/14 03:13:14;;;;;;;1.40;0.67;;;;;;;20.77;64.55;95581.28;5116077;27;20475;-59
2023/08/14 03:15:42;;;;;;;0.50;0.50;;;;;;;20.89;60.24;95580.59;5115877;28;20518;-59
2023/08/14 03:18:11;;;;;;;0.57;0.30;;;;;;;20.95;60.63;95579.25;5115746;27;20482;-59
2023/08/14 03:20:39;;;;;;;0.93;0.40;;;;;;;21.08;59.88;95580.16;5115745;28;20488;-59
2023/08/14 03:23:09;;;;;;;0.70;0.50;;;;;;;21.24;61.36;95578.44;5115675;28;20436;-59
2023/08/14 03:25:37;;;;;;;0.87;0.60;;;;;;;20.98;59.13;95584.00;5101264;28;20520;-59
2023/08/14 03:28:06;;;;;;;0.70;0.40;;;;;;;20.92;59.64;95586.09;5114929;27;20532;-59
2023/08/14 03:30:34;;;;;;;0.50;0.40;;;;;;;21.05;60.03;95572.72;5115523;28;20464;-59
2023/08/14 03:33:03;;;;;;;0.70;0.50;;;;;;;20.85;59.93;95579.66;5115512;28;20435;-59
2023/08/14 03:35:34;;;;;;;0.77;0.77;;;;;;;20.88;59.88;95581.69;5115345;28;20431;-59
2023/08/14 03:38:03;;;;;;;1.07;0.40;;;;;;;20.69;60.00;95570.59;5115067;28;20444;-59
2023/08/14 03:40:33;;;;;;;2.00;1.10;;;;;;;20.72;60.14;95581.47;5114012;28;20962;-59
2023/08/14 03:43:02;;;;;;;0.60;0.50;;;;;;;20.73;60.48;95582.28;5115318;28;20435;-59
2023/08/14 03:45:30;;;;;;;0.60;0.43;;;;;;;20.88;61.29;95595.16;5114606;28;20451;-59
2023/08/14 03:47:58;;;;;;;0.83;0.43;;;;;;;20.86;60.11;95581.25;5114845;28;21006;-58
2023/08/14 03:50:27;;;;;;;0.60;0.60;;;;;;;20.79;60.31;95589.06;5114766;28;20436;-58
2023/08/14 03:52:56;;;;;;;1.00;0.70;;;;;;;20.70;59.86;95591.00;5115376;28;20495;-59
2023/08/14 03:55:25;;;;;;;0.60;0.50;;;;;;;20.89;60.77;95594.06;5088710;28;20436;-59
2023/08/14 03:57:57;;;;;;;0.50;0.50;;;;;;;21.07;60.49;95595.56;5114442;28;20539;-58
2023/08/14 04:00:25;;;;;;;0.77;0.60;;;;;;;19.55;59.44;95381.53;5113713;28;20431;-59
2023/08/14 04:02:54;;;;;;;0.67;0.67;;;;;;;20.98;59.80;95586.69;5114747;28;20440;-59
2023/08/14 04:05:22;;;;;;;0.50;0.30;;;;;;;21.36;59.35;95586.59;5114399;28;20447;-59
2023/08/14 04:07:51;;;;;;;0.53;0.30;;;;;;;21.20;59.15;95550.59;5114782;28;20504;-59
2023/08/14 04:10:19;;;;;;;0.40;0.20;;;;;;;21.52;59.31;95591.06;5114578;28;20440;-59
2023/08/14 04:12:47;;;;;;;0.97;0.30;;;;;;;21.16;59.52;95590.06;5114349;27;20511;-58
2023/08/14 04:15:18;;;;;;;0.80;0.80;;;;;;;21.15;59.37;95591.22;5114106;28;20554;-58
2023/08/14 04:17:46;;;;;;;0.83;0.83;;;;;;;21.31;60.63;95590.28;5114042;28;20440;-58
2023/08/14 04:20:15;;;;;;;0.50;0.40;;;;;;;21.55;58.78;95592.28;5105467;28;20515;-57
2023/08/14 04:22:43;;;;;;;0.50;0.40;;;;;;;21.60;59.33;95596.69;5112377;28;20440;-58
2023/08/14 04:25:12;;;;;;;0.60;0.60;;;;;;;21.76;59.80;95593.03;5114512;28;20447;-58
2023/08/14 04:27:40;;;;;;;0.50;0.30;;;;;;;21.50;58.83;95587.88;5113594;28;20467;-57
2023/08/14 04:30:09;;;;;;;0.50;0.30;;;;;;;21.63;58.40;95596.78;5113395;28;20439;-57
2023/08/14 04:32:39;;;;;;;2.50;0.90;;;;;;;21.90;58.61;95595.47;5114470;28;20461;-59
2023/08/14 04:35:08;;;;;;;0.50;0.30;;;;;;;21.80;57.50;95603.94;5113690;28;20448;-57
2023/08/14 04:37:37;;;;;;;0.40;0.30;;;;;;;21.86;59.03;95598.03;5113786;28;20818;-58
2023/08/14 04:40:06;;;;;;;0.40;0.30;;;;;;;21.98;58.50;95600.78;5113775;28;20467;-57
2023/08/14 04:42:35;;;;;;;0.40;0.30;;;;;;;22.08;58.60;95604.94;5114146;28;20442;-58
2023/08/14 04:45:07;;;;;;;0.50;0.30;;;;;;;22.23;57.94;95603.50;5114072;28;20436;-57
2023/08/14 04:47:35;;;;;;;0.50;0.40;;;;;;;21.96;57.67;95604.94;5114085;28;20506;-57
2023/08/14 04:50:07;;;;;;;0.50;0.30;;;;;;;22.00;57.74;95613.94;5113102;28;20510;-57
2023/08/14 04:52:35;;;;;;;0.60;0.30;;;;;;;22.20;57.46;95617.66;5113838;27;20443;-58
2023/08/14 04:55:04;;;;;;;0.40;0.30;;;;;;;22.33;56.80;95611.97;5113539;28;20976;-57
2023/08/14 04:57:33;;;;;;;0.40;0.30;;;;;;;22.27;57.18;95616.00;5112857;28;20440;-57
2023/08/14 05:00:01;;;;;;;0.50;0.33;;;;;;;22.35;56.96;95615.13;5113524;28;21074;-57
2023/08/14 05:02:30;;;;;;;0.40;0.20;;;;;;;22.11;56.31;95544.91;5112797;28;20439;-57
2023/08/14 05:04:58;;;;;;;0.60;0.50;;;;;;;22.53;57.90;95615.69;5113340;28;20510;-52
2023/08/14 05:07:28;;;;;;;0.40;0.30;;;;;;;22.42;56.70;95611.84;5113274;28;20467;-51
2023/08/14 05:09:59;;;;;;;0.60;0.43;;;;;;;22.56;58.37;95599.59;5113348;28;20436;-53
2023/08/14 05:12:27;;;;;;;0.40;0.30;;;;;;;22.88;58.16;95611.41;5113737;28;20435;-51
2023/08/14 05:14:55;;;;;;;0.40;0.30;;;;;;;22.94;58.49;95598.47;5113239;28;20431;-49
2023/08/14 05:17:24;;;;;;;0.50;0.30;;;;;;;23.15;57.03;95615.31;5112763;28;20497;-49
2023/08/14 05:19:52;;;;;;;0.40;0.30;;;;;;;23.34;57.15;95607.38;5113559;28;20471;-50
2023/08/14 05:22:21;;;;;;;0.50;0.30;;;;;;;23.48;56.76;95602.38;5113635;28;20439;-50
2023/08/14 05:24:51;;;;;;;0.47;0.30;;;;;;;23.44;55.40;95601.50;5113420;28;20443;-50
2023/08/14 05:27:19;;;;;;;2.30;0.63;;;;;;;23.54;55.06;95603.72;5113344;28;20887;-50
2023/08/14 05:29:48;;;;;;;0.70;0.70;;;;;;;23.72;55.15;95609.63;5113333;28;20991;-50
2023/08/14 05:32:16;;;;;;;0.70;0.43;;;;;;;23.72;55.42;95606.94;5108167;28;20436;-48
2023/08/14 05:34:45;;;;;;;3.23;0.60;;;;;;;23.88;55.32;95599.66;5103888;28;20443;-50
2023/08/14 05:37:13;;;;;;;0.60;0.50;;;;;;;24.05;54.03;95610.16;5112978;27;20814;-50
2023/08/14 05:39:42;;;;;;;0.50;0.40;;;;;;;24.05;53.21;95607.44;5113645;28;20448;-50
2023/08/14 05:42:12;;;;;;;0.80;0.80;;;;;;;23.55;53.03;95526.84;5112917;28;20436;-50
2023/08/14 05:44:40;;;;;;;0.70;0.60;;;;;;;23.86;52.49;95547.75;5113559;28;20504;-50
2023/08/14 05:47:08;;;;;;;0.60;0.50;;;;;;;24.38;51.09;95599.81;5106841;28;20953;-50
2023/08/14 05:49:37;;;;;;;1.47;0.87;;;;;;;24.25;51.50;95554.19;5105644;28;20502;-50
2023/08/14 05:52:06;;;;;;;0.73;0.60;;;;;;;24.76;51.22;95596.44;5086093;28;20869;-50
2023/08/14 05:54:34;;;;;;;1.00;0.60;;;;;;;24.67;50.86;95595.84;5112902;28;20483;-49
2023/08/14 05:57:02;;;;;;;1.30;0.70;;;;;;;24.82;50.13;95569.91;5112544;28;20481;-49
2023/08/14 05:59:33;;;;;;;0.60;0.30;;;;;;;25.12;49.72;95593.41;5112341;28;20504;-49
2023/08/14 06:02:01;;;;;;;0.50;0.40;;;;;;;25.29;48.27;95586.00;5112414;28;20492;-49
2023/08/14 06:04:33;;;;;;;0.50;0.40;;;;;;;25.48;48.00;95586.03;5112336;28;20451;-52
2023/08/14 06:07:01;;;;;;;0.40;0.30;;;;;;;25.55;48.15;95583.50;5112940;28;20439;-53
2023/08/14 06:09:30;;;;;;;0.50;0.30;;;;;;;25.66;47.60;95587.19;5112172;28;20514;-52
2023/08/14 06:11:58;;;;;;;0.80;0.43;;;;;;;25.62;48.01;95580.91;5112257;28;20518;-54
2023/08/14 06:14:26;;;;;;;0.40;0.30;;;;;;;25.71;46.84;95574.09;5112498;28;20481;-53
2023/08/14 06:16:56;;;;;;;0.60;0.40;;;;;;;25.89;47.69;95582.59;5112547;28;20532;-53
2023/08/14 06:19:24;;;;;;;0.53;0.50;;;;;;;26.24;46.72;95569.66;5112279;28;20814;-54
2023/08/14 06:21:54;;;;;;;0.50;0.50;;;;;;;26.37;45.99;95571.03;5112317;28;20828;-54
2023/08/14 06:24:22;;;;;;;1.17;0.60;;;;;;;26.67;45.45;95568.41;5112171;28;20440;-54
2023/08/14 06:26:50;;;;;;;0.50;0.40;;;;;;;26.71;44.62;95566.53;5112223;28;20447;-55
2023/08/14 06:29:19;;;;;;;0.50;0.40;;;;;;;26.85;45.57;95565.97;5111820;28;20528;-54
2023/08/14 06:31:47;;;;;;;1.40;0.50;;;;;;;27.10;45.02;95543.41;5112090;28;20440;-54
2023/08/14 06:34:17;;;;;;;0.53;0.53;;;;;;;27.58;44.11;95568.91;5112308;28;20436;-57
2023/08/14 06:36:46;;;;;;;0.60;0.57;;;;;;;27.71;43.19;95566.72;5111905;28;20795;-57
2023/08/14 06:39:14;;;;;;;0.77;0.77;;;;;;;27.79;42.32;95562.94;5112213;28;20444;-58
2023/08/14 06:41:42;;;;;;;0.43;0.43;;;;;;;27.75;43.07;95566.78;5111527;28;20439;-56
2023/08/14 06:44:12;;;;;;;0.40;0.30;;;;;;;28.01;42.22;95566.69;5111732;28;20444;-57
2023/08/14 06:46:40;;;;;;;0.40;0.30;;;;;;;27.87;42.60;95567.31;5112031;28;20442;-57
2023/08/14 06:49:10;;;;;;;0.50;0.40;;;;;;;27.93;41.32;95568.50;5111868;28;20850;-57
2023/08/14 06:51:40;;;;;;;0.80;0.77;;;;;;;27.73;42.38;95563.66;5111872;28;20439;-57
2023/08/14 06:54:08;;;;;;;0.40;0.40;;;;;;;27.67;41.94;95565.91;5111250;28;20442;-57
2023/08/14 06:56:37;;;;;;;0.40;0.30;;;;;;;27.76;43.12;95562.88;5110804;28;20471;-57
2023/08/14 06:59:05;;;;;;;4.77;0.40;;;;;;;27.73;42.03;95559.75;5111680;28;20482;-57
2023/08/14 07:01:33;;;;;;;0.93;0.93;;;;;;;27.79;42.14;95570.31;5111438;28;20438;-57
2023/08/14 07:04:02;;;;;;;0.40;0.30;;;;;;;27.65;42.54;95566.28;5111957;28;20435;-57
2023/08/14 07:06:33;;;;;;;0.50;0.50;;;;;;;27.49;42.74;95557.53;5111475;28;20910;-57
2023/08/14 07:09:03;;;;;;;0.40;0.30;;;;;;;27.49;42.23;95560.25;5111821;28;20850;-57
2023/08/14 07:11:36;;;;;;;0.70;0.40;;;;;;;27.43;42.77;95561.75;5111375;28;20439;-57
2023/08/14 07:14:06;;;;;;;0.80;0.40;;;;;;;27.30;42.16;95563.09;5111735;28;20805;-57
2023/08/14 07:16:34;;;;;;;0.40;0.37;;;;;;;27.45;42.49;95564.09;5110260;28;20454;-57
2023/08/14 07:19:03;;;;;;;0.40;0.30;;;;;;;27.65;42.35;95560.81;5111852;28;20990;-57
2023/08/14 07:21:31;;;;;;;0.50;0.30;;;;;;;26.99;43.12;95458.13;5111705;28;20471;-57
2023/08/14 07:24:00;;;;;;;0.50;0.30;;;;;;;27.78;43.07;95555.13;5111779;28;20436;-57
2023/08/14 07:26:29;;;;;;;0.87;0.50;;;;;;;27.84;42.27;95554.41;5111654;28;20925;-57
2023/08/14 07:28:58;;;;;;;0.97;0.60;;;;;;;28.08;42.31;95547.69;5111672;28;20475;-56
2023/08/14 07:31:26;;;;;;;0.50;0.43;;;;;;;28.22;41.76;95542.34;5111399;28;21009;-57
2023/08/14 07:33:54;;;;;;;0.40;0.30;;;;;;;28.49;41.78;95554.66;5110757;28;20435;-57
2023/08/14 07:36:23;;;;;;;0.63;0.40;;;;;;;28.49;41.91;95540.25;5111457;28;20431;-57
2023/08/14 07:38:52;;;;;;;0.40;0.40;;;;;;;28.41;40.30;95538.63;5111096;28;20518;-56
2023/08/14 07:41:20;;;;;;;0.50;0.50;;;;;;;28.62;41.93;95531.41;5111500;28;20443;-57
2023/08/14 07:43:50;;;;;;;0.63;0.63;;;;;;;28.92;40.96;95540.19;5111197;28;20431;-57
2023/08/14 07:46:18;;;;;;;0.50;0.40;;;;;;;29.45;39.81;95543.19;5111617;28;20484;-59
2023/08/14 07:48:46;;;;;;;0.77;0.77;;;;;;;30.15;39.61;95531.72;5110472;28;21027;-59
2023/08/14 07:51:15;;;;;;;0.47;0.33;;;;;;;30.13;38.61;95536.75;5111611;28;20439;-59
2023/08/14 07:53:43;;;;;;;0.80;0.33;;;;;;;30.58;36.54;95512.56;5111140;28;20444;-59
2023/08/14 07:56:11;;;;;;;0.40;0.40;;;;;;;30.75;38.41;95525.44;5112490;28;20941;-59
2023/08/14 07:58:43;;;;;;;0.63;0.40;;;;;;;29.90;38.81;95484.44;5114883;28;20480;-59
2023/08/14 08:01:13;;;;;;;2.23;0.90;;;;;;;29.59;38.58;95534.28;5114617;28;20442;-60
2023/08/14 08:03:41;;;;;;;0.47;0.40;;;;;;;29.13;39.38;95527.81;5111043;28;20527;-60
2023/08/14 08:06:09;;;;;;;0.40;0.30;;;;;;;29.15;38.85;95528.19;5114149;28;20435;-59
2023/08/14 08:08:38;;;;;;;0.40;0.33;;;;;;;29.10;40.32;95528.56;5114337;28;20803;-57
2023/08/14 08:11:07;;;;;;;0.43;0.33;;;;;;;29.79;39.24;95530.06;5114018;28;20482;-57
2023/08/14 08:13:36;;;;;;;0.40;0.30;;;;;;;30.76;37.44;95522.31;5114802;28;20436;-55
2023/08/14 08:16:04;;;;;;;0.40;0.40;;;;;;;30.54;36.66;95520.00;5113317;28;20502;-55
2023/08/14 08:18:34;;;;;;;0.80;0.80;;;;;;;30.74;36.62;95510.97;5113836;28;20450;-56
2023/08/14 08:21:02;;;;;;;0.50;0.33;;;;;;;31.02;36.89;95512.16;5113747;28;20439;-56
2023/08/14 08:23:31;;;;;;;0.47;0.40;;;;;;;31.52;35.30;95513.56;5114186;28;20478;-56
2023/08/14 08:25:59;;;;;;;0.40;0.30;;;;;;;32.48;36.85;95514.50;5114759;28;20432;-55
2023/08/14 08:28:27;;;;;;;3.90;1.50;;;;;;;32.55;35.12;95500.75;5114746;28;20512;-55
2023/08/14 08:30:56;;;;;;;0.50;0.50;;;;;;;31.94;36.19;95512.53;5114253;28;20998;-56
2023/08/14 08:33:24;;;;;;;0.40;0.30;;;;;;;32.54;34.05;95501.91;5114398;28;20443;-56
2023/08/14 08:35:56;;;;;;;0.47;0.40;;;;;;;32.68;35.10;95497.50;5113717;28;20447;-56
2023/08/14 08:38:24;;;;;;;0.50;0.30;;;;;;;31.91;34.81;95500.38;5114489;28;20504;-54
2023/08/14 08:40:53;;;;;;;0.40;0.40;;;;;;;32.43;37.08;95497.69;5114027;28;20896;-55
2023/08/14 08:43:23;;;;;;;0.87;0.87;;;;;;;31.57;36.43;95498.66;5113955;28;20859;-55
2023/08/14 08:45:56;;;;;;;0.60;0.60;;;;;;;31.18;36.73;95496.03;5113976;28;20438;-55
2023/08/14 08:48:25;;;;;;;0.63;0.63;;;;;;;30.85;36.32;95496.50;5113706;28;20604;-55
2023/08/14 08:50:54;;;;;;;0.50;0.50;;;;;;;30.41;38.23;95496.97;5113761;27;20482;-56
2023/08/14 08:53:24;;;;;;;0.60;0.50;;;;;;;30.67;36.79;95491.06;5113977;28;20435;-56
2023/08/14 08:55:53;;;;;;;0.53;0.37;;;;;;;31.11;38.18;95496.06;5113953;28;20533;-55
2023/08/14 08:58:22;;;;;;;0.50;0.40;;;;;;;30.91;38.16;95489.47;5108249;28;20950;-55
2023/08/14 09:00:51;;;;;;;0.80;0.70;;;;;;;30.38;38.04;95490.31;5106313;28;20493;-54
2023/08/14 09:03:20;;;;;;;0.40;0.40;;;;;;;30.71;38.82;95478.16;5086166;28;20515;-55
2023/08/14 09:05:49;;;;;;;0.50;0.50;;;;;;;30.81;37.72;95485.56;5113296;27;20837;-54
2023/08/14 09:08:18;;;;;;;0.50;0.40;;;;;;;30.76;37.64;95496.91;5113246;28;20446;-55
2023/08/14 09:10:47;;;;;;;0.40;0.37;;;;;;;29.54;37.78;95378.97;5113318;28;20471;-54
2023/08/14 09:13:16;;;;;;;0.40;0.30;;;;;;;30.22;36.97;95497.31;5113204;28;20454;-54
2023/08/14 09:16:00;;;;;;;0.40;0.40;;;;;;;30.24;36.30;95497.69;5112385;28;20500;-54
2023/08/14 09:18:30;;;;;;;0.90;0.90;;;;;;;30.14;36.47;95500.06;5113195;28;20526;-54
2023/08/14 09:20:59;;;;;;;0.50;0.33;;;;;;;29.85;39.01;95437.56;5113420;28;20439;-54
2023/08/14 09:23:27;;;;;;;0.40;0.40;;;;;;;30.06;36.25;95435.59;5112909;28;20447;-54
2023/08/14 09:25:57;;;;;;;0.50;0.30;;;;;;;31.11;37.54;95487.84;5112832;28;20862;-54
2023/08/14 09:28:27;;;;;;;0.40;0.30;;;;;;;30.88;37.88;95485.53;5112800;28;20436;-54
2023/08/14 09:31:06;;;;;;;0.40;0.40;;;;;;;30.65;37.58;95482.47;5112494;28;20489;-55
2023/08/14 09:33:34;;;;;;;0.40;0.40;;;;;;;31.15;37.16;95485.88;5111960;28;20456;-54
2023/08/14 09:36:03;;;;;;;0.50;0.50;;;;;;;31.19;37.37;95484.72;5112708;28;21019;-55
2023/08/14 09:38:31;;;;;;;0.40;0.40;;;;;;;31.01;36.87;95488.66;5112582;28;20446;-55
2023/08/14 09:41:02;;;;;;;0.60;0.60;;;;;;;30.75;36.83;95451.56;5113004;28;20439;-55
2023/08/14 09:43:31;;;;;;;0.40;0.30;;;;;;;30.64;37.64;95491.84;5112735;28;20500;-55
2023/08/14 09:46:02;;;;;;;0.57;0.57;;;;;;;30.49;37.66;95471.16;5112846;27;20465;-55
2023/08/14 09:48:40;;;;;;;0.60;0.60;;;;;;;30.09;37.50;95475.84;5098672;28;20527;-55
2023/08/14 09:51:13;;;;;;;0.53;0.50;;;;;;;30.02;38.73;95486.00;5112602;28;20991;-56
2023/08/14 09:53:48;;;;;;;0.40;0.40;;;;;;;30.22;38.40;95481.69;5112397;28;20942;-56
2023/08/14 09:56:18;;;;;;;0.63;0.47;;;;;;;30.31;37.32;95484.81;5111891;27;20439;-55
2023/08/14 09:58:48;;;;;;;0.43;0.40;;;;;;;30.38;38.12;95475.88;5112499;28;20435;-58
2023/08/14 10:01:17;;;;;;;0.40;0.30;;;;;;;30.35;37.96;95485.63;5112452;28;20484;-58
2023/08/14 10:03:49;;;;;;;0.83;0.83;;;;;;;30.52;38.14;95489.50;5112363;28;20491;-58
2023/08/14 10:06:18;;;;;;;0.43;0.30;;;;;;;30.26;38.43;95481.72;5112270;28;20443;-58
2023/08/14 10:08:51;;;;;;;0.40;0.37;;;;;;;30.34;38.11;95475.03;5112369;28;20439;-58
2023/08/14 10:11:23;;;;;;;0.47;0.43;;;;;;;29.82;38.47;95482.84;5112292;28;20478;-58
2023/08/14 10:13:55;;;;;;;0.50;0.30;;;;;;;29.53;38.63;95478.44;5112561;28;20522;-58
2023/08/14 10:16:24;;;;;;;0.50;0.40;;;;;;;29.04;39.89;95475.53;5111285;28;20436;-57
2023/08/14 10:18:56;;;;;;;0.40;0.40;;;;;;;29.40;39.41;95478.03;5111567;28;20999;-57
2023/08/14 10:21:26;;;;;;;0.50;0.40;;;;;;;29.51;40.03;95458.94;5111273;28;21071;-58
2023/08/14 10:23:59;;;;;;;0.50;0.40;;;;;;;29.24;40.42;95405.81;5111970;28;20447;-58
2023/08/14 10:26:29;;;;;;;0.50;0.40;;;;;;;29.94;38.90;95457.09;5103130;28;20447;-58
2023/08/14 10:28:58;;;;;;;0.40;0.40;;;;;;;30.43;38.98;95465.31;5108015;28;20443;-59
2023/08/14 10:31:28;;;;;;;0.40;0.30;;;;;;;30.47;38.84;95470.75;5111401;28;20482;-58
2023/08/14 10:33:58;;;;;;;0.43;0.40;;;;;;;30.28;39.29;95462.94;5111780;28;20514;-58
2023/08/14 10:36:28;;;;;;;0.67;0.67;;;;;;;30.91;38.25;95454.69;5111914;28;20546;-58
2023/08/14 10:39:07;;;;;;;0.40;0.30;;;;;;;31.75;38.48;95469.19;5111458;28;20435;-57
2023/08/14 10:41:37;;;;;;;0.50;0.50;;;;;;;32.84;37.00;95443.56;5111638;28;20453;-50
2023/08/14 10:44:06;;;;;;;0.70;0.60;;;;;;;33.43;33.78;95444.06;5086028;28;20921;-50
2023/08/14 10:46:41;;;;;;;0.40;0.30;;;;;;;34.19;35.36;95461.84;5111611;28;20469;-54
2023/08/14 10:49:13;;;;;;;0.47;0.40;;;;;;;34.87;34.65;95438.25;5111814;28;20963;-53
2023/08/14 10:51:42;;;;;;;0.70;0.70;;;;;;;34.63;33.51;95449.72;5111735;28;21020;-54
2023/08/14 10:54:12;;;;;;;0.50;0.40;;;;;;;34.16;34.19;95451.69;5111586;28;20449;-54
2023/08/14 10:56:43;;;;;;;0.50;0.47;;;;;;;34.07;34.49;95396.44;5111436;28;20496;-54
2023/08/14 10:59:22;;;;;;;0.87;0.80;;;;;;;34.26;33.23;95453.47;5111226;28;20446;-54
2023/08/14 11:01:53;;;;;;;0.40;0.40;;;;;;;33.73;34.99;95448.78;5111619;28;20441;-55
2023/08/14 11:04:21;;;;;;;1.03;0.40;;;;;;;33.47;35.18;95452.28;5111533;28;20466;-55
2023/08/14 11:07:05;;;;;;;0.57;0.43;;;;;;;33.15;35.46;95455.41;5112102;28;20491;-55
2023/08/14 11:09:34;;;;;;;0.47;0.33;;;;;;;32.91;36.60;95451.75;5111007;28;20470;-56
2023/08/14 11:12:06;;;;;;;0.53;0.50;;;;;;;32.59;37.39;95421.09;5111887;28;20479;-56
2023/08/14 11:14:39;;;;;;;0.60;0.50;;;;;;;32.62;37.39;95450.47;5111931;28;20543;-56
2023/08/14 11:17:09;;;;;;;0.53;0.40;;;;;;;32.26;37.59;95441.03;5111863;28;20508;-56
2023/08/14 11:19:38;;;;;;;0.53;0.40;;;;;;;31.85;37.67;95443.66;5111505;28;20438;-56
2023/08/14 11:22:07;;;;;;;0.60;0.43;;;;;;;31.42;37.62;95438.41;5111766;28;20517;-56
2023/08/14 11:24:36;;;;;;;0.70;0.70;;;;;;;30.92;38.69;95378.78;5111520;28;20439;-56
2023/08/14 11:27:07;;;;;;;0.60;0.60;;;;;;;31.13;38.33;95431.50;5111497;28;20851;-56
2023/08/14 11:29:36;;;;;;;0.50;0.43;;;;;;;31.31;38.30;95379.38;5112245;28;20438;-56
2023/08/14 11:32:19;;;;;;;1.10;0.70;;;;;;;31.20;39.05;95430.69;5115288;28;20856;-57
2023/08/14 11:34:50;;;;;;;0.80;0.80;;;;;;;30.62;39.08;95429.31;5115485;28;20438;-58
2023/08/14 11:37:18;;;;;;;0.60;0.60;;;;;;;31.15;39.61;95425.63;5115457;27;20430;-58
2023/08/14 11:39:47;;;;;;;1.10;0.40;;;;;;;31.66;39.72;95438.69;5115178;28;20435;-57
2023/08/14 11:42:17;;;;;;;0.50;0.30;;;;;;;31.81;38.49;95416.25;5115352;28;20439;-57
2023/08/14 11:44:46;;;;;;;0.50;0.40;;;;;;;31.82;38.69;95425.28;5115042;27;20438;-54